Ansted, West Virginia
Current Conditions -  °F | °C
As of 12:51 PM on Wednesday 26 Nov 2014 (Local Time) from KBKW Reporting Station
Haze Haze  
Wind Chill: -1°   Ceiling: 200
Heat Index:   Visibility: 3mi
Dew Point:   Wind: 5mph
Humidity: 92%   Direction: 270°W
Pressure: 29.96"   Gusts: NA
Location:  38.14°N, 81.1°W
Report Text: KBKW 261751Z AUTO 27004KT 3SM BR OVC002 02/01 A2996 RMK AO2 UPB33E43SNE18 SLP162 P0000 60030 T00170006 10017 20006 56014
Loading
Personal Weather Stations






























Interactive Weather Map New forecast layout! Learn more

10-Day Weather Forecast

Advertisements
Track Severe Weather on mobile